Time;durP1;ratioP1;P1;durP2;ratioP2;P2;SDS_P1;SDS_P2;PMS_P1;PMS_P2;Temp;Humidity;BMP_temperature;BMP_pressure;BME280_temperature;BME280_humidity;BME280_pressure;Samples;Min_cycle;Max_cycle;Signal;HPM_P1;HPM_P2
2022/07/27 00:02:09;;;;;;;3.47;1.00;;;;;;;14.93;76.56;102180.53;4947042;29;21022;-62
2022/07/27 00:04:34;;;;;;;6.50;1.02;;;;;;;15.01;76.45;102182.94;4953619;28;20039;-62
2022/07/27 00:07:00;;;;;;;1.40;0.93;;;;;;;15.05;76.21;102179.28;4945510;29;20090;-62
2022/07/27 00:09:25;;;;;;;4.00;1.00;;;;;;;15.05;76.37;102176.63;4928103;29;20031;-60
2022/07/27 00:11:51;;;;;;;2.92;1.02;;;;;;;15.08;76.26;102173.03;4946934;29;20062;-62
2022/07/27 00:14:16;;;;;;;4.25;1.17;;;;;;;15.10;76.38;102179.13;4946734;29;20090;-61
2022/07/27 00:16:41;;;;;;;1.95;0.93;;;;;;;15.18;76.47;102177.13;4946158;29;20525;-61
2022/07/27 00:19:07;;;;;;;1.23;1.10;;;;;;;15.23;76.54;102172.53;4947564;29;20023;-67
2022/07/27 00:21:32;;;;;;;1.35;0.90;;;;;;;15.29;76.61;102182.06;4929872;29;20031;-62
2022/07/27 00:23:58;;;;;;;7.53;1.08;;;;;;;15.32;77.38;102171.34;4948830;28;20717;-61
2022/07/27 00:26:23;;;;;;;6.75;1.25;;;;;;;15.33;76.82;102178.41;4951858;28;20035;-62
2022/07/27 00:28:49;;;;;;;2.25;1.13;;;;;;;15.33;76.82;102174.88;4945913;29;20542;-60
2022/07/27 00:31:14;;;;;;;4.43;1.35;;;;;;;15.29;76.44;102177.63;4927411;29;20015;-60
2022/07/27 00:33:40;;;;;;;2.72;1.00;;;;;;;15.27;76.33;102173.31;4929386;29;20054;-60
2022/07/27 00:36:05;;;;;;;2.97;1.27;;;;;;;15.26;75.93;102177.72;4947060;29;20553;-62
2022/07/27 00:38:31;;;;;;;2.78;1.02;;;;;;;15.19;76.17;102181.50;4946582;29;20025;-61
2022/07/27 00:40:56;;;;;;;8.15;1.48;;;;;;;15.09;76.33;102178.28;4946557;29;20027;-61
2022/07/27 00:43:21;;;;;;;3.53;1.10;;;;;;;15.03;76.54;102179.31;4913509;29;20031;-61
2022/07/27 00:45:47;;;;;;;4.20;1.08;;;;;;;15.02;76.68;102176.75;4953053;28;20018;-62
2022/07/27 00:48:12;;;;;;;2.95;0.98;;;;;;;14.98;76.71;102175.09;4947110;28;20498;-62
2022/07/27 00:50:41;;;;;;;3.92;1.10;;;;;;;14.96;76.67;102180.44;4945004;29;20375;-62
2022/07/27 00:53:07;;;;;;;;;;;;;;;15.00;76.78;102178.56;4929349;29;20236;-60
2022/07/27 00:55:33;;;;;;;3.05;1.00;;;;;;;14.99;76.42;102174.19;4929473;29;20026;-60
2022/07/27 00:57:59;;;;;;;3.35;1.20;;;;;;;14.96;76.47;102174.28;4946550;29;20020;-61
2022/07/27 01:00:25;;;;;;;2.88;1.10;;;;;;;14.86;76.62;102166.59;4928251;29;20055;-61
2022/07/27 01:02:50;;;;;;;2.42;1.08;;;;;;;14.70;77.62;102171.47;4929295;29;20074;-60
2022/07/27 01:05:16;;;;;;;3.45;1.00;;;;;;;14.57;77.91;102168.31;4948187;28;20595;-60
2022/07/27 01:07:41;;;;;;;5.03;1.00;;;;;;;14.49;78.29;102170.31;4950613;28;20498;-60
2022/07/27 01:10:07;;;;;;;3.83;1.35;;;;;;;14.44;78.97;102166.91;4928352;29;20027;-60
2022/07/27 01:12:32;;;;;;;5.35;1.10;;;;;;;14.32;79.49;102169.03;4912123;29;20027;-60
2022/07/27 01:14:58;;;;;;;3.25;1.63;;;;;;;14.24;79.92;102166.59;4945604;29;20035;-61
2022/07/27 01:17:25;;;;;;;1.50;0.82;;;;;;;14.22;80.28;102167.53;4945950;29;20475;-60
2022/07/27 01:19:50;;;;;;;5.47;1.38;;;;;;;14.24;80.02;102169.22;4929281;29;20035;-61
2022/07/27 01:22:16;;;;;;;3.33;1.17;;;;;;;14.25;80.23;102167.47;4946006;29;20023;-60
2022/07/27 01:24:42;;;;;;;2.33;1.00;;;;;;;14.22;80.65;102162.25;4929014;29;20097;-60
2022/07/27 01:27:07;;;;;;;5.03;1.25;;;;;;;14.19;80.83;102167.63;4935869;28;20448;-65
2022/07/27 01:29:33;;;;;;;2.50;1.25;;;;;;;14.13;81.45;102161.59;4945395;29;20102;-62
2022/07/27 01:31:59;;;;;;;4.15;1.25;;;;;;;14.09;81.92;102178.47;4944749;29;20113;-61
2022/07/27 01:34:24;;;;;;;5.57;1.25;;;;;;;14.08;82.09;102179.41;4945295;29;20122;-60
2022/07/27 01:36:49;;;;;;;3.13;1.13;;;;;;;14.07;82.48;102172.38;4945845;29;20035;-62
2022/07/27 01:39:17;;;;;;;2.25;1.00;;;;;;;14.06;82.82;102177.72;4946121;29;20035;-60
2022/07/27 01:41:42;;;;;;;3.65;1.50;;;;;;;14.07;82.88;102172.38;4945775;29;20023;-61
2022/07/27 01:44:07;;;;;;;3.65;1.40;;;;;;;14.17;82.88;102164.16;4948408;28;20019;-61
2022/07/27 01:46:33;;;;;;;4.10;1.30;;;;;;;14.23;82.70;102169.28;4935917;28;20023;-60
2022/07/27 01:48:58;;;;;;;4.82;1.38;;;;;;;14.26;82.81;102164.78;4936138;29;20087;-61
2022/07/27 01:51:24;;;;;;;5.88;1.30;;;;;;;14.27;82.81;102161.19;4931084;29;20035;-61
2022/07/27 01:53:49;;;;;;;1.80;0.82;;;;;;;14.32;82.92;102158.41;4948897;29;20506;-61
2022/07/27 01:56:14;;;;;;;4.97;1.35;;;;;;;14.32;83.02;102169.03;4949648;29;20422;-61
2022/07/27 01:58:40;;;;;;;3.55;1.10;;;;;;;14.37;82.68;102164.47;4932541;29;20385;-62
2022/07/27 02:01:06;;;;;;;4.13;1.30;;;;;;;14.43;82.59;102159.88;4932010;29;20050;-62
2022/07/27 02:03:32;;;;;;;4.10;1.10;;;;;;;14.55;82.38;102163.97;4932108;29;20062;-62
2022/07/27 02:05:58;;;;;;;6.50;1.20;;;;;;;14.74;82.11;102153.66;4949289;29;20074;-62
2022/07/27 02:08:23;;;;;;;3.08;1.25;;;;;;;14.89;81.10;102157.66;4937987;28;20074;-63
2022/07/27 02:13:33;;;;;;;3.65;1.17;;;;;;;15.04;79.83;102153.66;4948267;29;20535;-62
2022/07/27 02:15:58;;;;;;;2.63;0.95;;;;;;;15.08;79.36;102146.47;4948382;29;20027;-60
2022/07/27 02:18:24;;;;;;;1.65;0.80;;;;;;;15.10;79.07;102149.94;4948833;29;20023;-62
2022/07/27 02:20:49;;;;;;;3.63;1.00;;;;;;;15.12;79.26;102158.72;4932300;29;20039;-61
2022/07/27 02:23:14;;;;;;;7.13;1.20;;;;;;;15.11;79.54;102149.88;4931643;29;20505;-61
2022/07/27 02:25:40;;;;;;;4.25;1.58;;;;;;;15.13;79.39;102156.03;4948129;29;20055;-61
2022/07/27 02:28:06;;;;;;;2.75;0.98;;;;;;;15.19;79.53;102143.47;4951118;28;20134;-61
2022/07/27 02:30:31;;;;;;;2.72;1.00;;;;;;;15.26;79.48;102148.53;4936581;28;20022;-61
2022/07/27 02:32:56;;;;;;;2.03;0.93;;;;;;;15.35;79.31;102144.69;4954372;28;20482;-60
2022/07/27 02:35:22;;;;;;;3.35;1.10;;;;;;;15.47;78.62;102139.91;4954206;28;20026;-60
2022/07/27 02:37:47;;;;;;;2.30;0.88;;;;;;;15.56;78.11;102142.22;4950052;28;20027;-61
2022/07/27 02:40:15;;;;;;;0.90;0.80;;;;;;;15.70;77.51;102147.06;4953170;28;20446;-61
2022/07/27 02:42:41;;;;;;;2.87;1.13;;;;;;;15.80;77.09;102134.31;4950041;28;20090;-62
2022/07/27 02:45:07;;;;;;;5.72;1.40;;;;;;;15.89;76.34;102144.63;4930034;29;20759;-61
2022/07/27 02:47:32;;;;;;;3.58;1.17;;;;;;;15.91;76.21;102137.50;4948204;29;20121;-61
2022/07/27 02:49:57;;;;;;;3.88;1.27;;;;;;;15.96;76.02;102139.09;4951947;28;20023;-61
2022/07/27 02:52:23;;;;;;;3.70;1.02;;;;;;;16.00;75.85;102130.13;4952703;28;20054;-63
2022/07/27 02:54:48;;;;;;;4.53;1.17;;;;;;;16.02;75.71;102133.59;4946157;28;20130;-61
2022/07/27 02:57:14;;;;;;;2.38;1.08;;;;;;;16.04;75.39;102126.41;4930197;29;20024;-61
2022/07/27 02:59:39;;;;;;;1.23;1.00;;;;;;;16.09;74.84;102135.13;4947259;29;20039;-61
2022/07/27 03:02:04;;;;;;;5.05;1.08;;;;;;;16.05;75.08;102133.50;4948873;29;20069;-62
2022/07/27 03:04:30;;;;;;;2.58;0.90;;;;;;;16.11;75.00;102138.59;4947959;29;20138;-61
2022/07/27 03:06:55;;;;;;;4.55;1.30;;;;;;;16.10;75.15;102143.97;4948522;29;20106;-61
2022/07/27 03:09:21;;;;;;;9.45;1.27;;;;;;;16.15;74.84;102136.66;4949005;28;20445;-61
2022/07/27 03:11:46;;;;;;;6.53;1.40;;;;;;;16.18;74.78;102144.53;4954357;28;20034;-62
2022/07/27 03:14:11;;;;;;;5.43;1.35;;;;;;;16.18;74.69;102141.88;4945793;29;20127;-60
2022/07/27 03:16:37;;;;;;;6.50;1.10;;;;;;;16.09;74.37;102135.13;4947096;29;20612;-62
2022/07/27 03:19:02;;;;;;;7.80;1.20;;;;;;;15.97;74.60;102147.06;4931093;29;20023;-62
2022/07/27 03:21:27;;;;;;;2.92;0.82;;;;;;;16.09;74.28;102140.44;4914859;29;20033;-62
2022/07/27 03:23:53;;;;;;;3.90;0.80;;;;;;;15.99;74.60;102131.94;4931088;29;20027;-61
2022/07/27 03:26:18;;;;;;;2.50;0.82;;;;;;;16.07;74.79;102133.44;4931467;28;20042;-62
2022/07/27 03:28:44;;;;;;;3.15;0.90;;;;;;;16.09;74.90;102132.44;4954786;28;20031;-62
2022/07/27 03:31:10;;;;;;;3.83;1.00;;;;;;;16.06;75.03;102137.88;4945364;29;20134;-62
2022/07/27 03:33:35;;;;;;;2.42;1.10;;;;;;;15.98;75.44;102140.81;4929911;29;20030;-62
2022/07/27 03:36:01;;;;;;;5.88;1.00;;;;;;;16.04;75.34;102134.41;4947975;29;20778;-61
2022/07/27 03:38:26;;;;;;;0.60;0.60;;;;;;;16.01;75.73;102139.81;4947661;29;20974;-62
2022/07/27 03:40:51;;;;;;;3.25;0.93;;;;;;;16.02;75.70;102131.78;4955369;28;20034;-62
2022/07/27 03:43:17;;;;;;;2.53;0.90;;;;;;;15.98;75.87;102137.31;4947374;29;20434;-61
2022/07/27 03:45:43;;;;;;;3.50;1.15;;;;;;;15.97;75.80;102138.19;4912320;29;20097;-64
2022/07/27 03:48:08;;;;;;;2.17;1.23;;;;;;;15.94;76.42;102143.59;4947027;29;20055;-60
2022/07/27 03:50:35;;;;;;;1.88;0.90;;;;;;;15.96;76.59;102141.75;4947759;29;20453;-60
2022/07/27 03:53:00;;;;;;;3.28;1.08;;;;;;;15.98;76.49;102148.78;4930378;29;20134;-61
2022/07/27 03:55:26;;;;;;;2.13;0.90;;;;;;;15.95;76.53;102148.00;4946881;29;20110;-61
2022/07/27 03:57:51;;;;;;;3.45;1.23;;;;;;;15.88;76.72;102153.53;4930328;29;20122;-61
2022/07/27 04:00:17;;;;;;;3.30;1.08;;;;;;;15.95;76.48;102150.66;4950919;28;20081;-61
2022/07/27 04:02:43;;;;;;;2.97;1.02;;;;;;;16.02;76.34;102150.41;4949693;28;20361;-60
2022/07/27 04:05:09;;;;;;;3.10;1.00;;;;;;;16.08;76.05;102153.78;4928048;29;20043;-62
2022/07/27 04:07:34;;;;;;;2.78;1.17;;;;;;;16.01;76.14;102155.78;4929207;29;20046;-62
2022/07/27 04:10:00;;;;;;;5.80;0.90;;;;;;;16.07;76.54;102157.38;4946981;29;20390;-62
2022/07/27 04:12:25;;;;;;;3.33;1.15;;;;;;;16.03;77.01;102153.94;4948598;28;20014;-62
2022/07/27 04:14:51;;;;;;;5.05;1.45;;;;;;;16.06;77.49;102156.50;4951039;28;20043;-62
2022/07/27 04:17:16;;;;;;;4.15;1.50;;;;;;;16.02;77.85;102161.03;4946414;28;20062;-61
2022/07/27 04:19:42;;;;;;;5.47;1.20;;;;;;;15.88;79.18;102161.50;4945151;28;20054;-62
2022/07/27 04:22:07;;;;;;;5.90;1.20;;;;;;;16.01;78.28;102163.75;4928917;29;20034;-65
2022/07/27 04:24:32;;;;;;;4.38;1.35;;;;;;;16.07;77.95;102158.22;4929589;29;20030;-62
2022/07/27 04:26:58;;;;;;;2.05;1.10;;;;;;;16.12;77.96;102161.59;4928748;29;20543;-62
2022/07/27 04:29:23;;;;;;;2.25;0.98;;;;;;;16.24;77.59;102164.72;4945542;28;20120;-62
2022/07/27 04:31:48;;;;;;;3.83;1.25;;;;;;;16.30;77.41;102159.16;4946506;28;20498;-62
2022/07/27 04:34:14;;;;;;;4.57;1.15;;;;;;;16.32;78.11;102173.28;4945773;28;20035;-62
2022/07/27 04:36:39;;;;;;;5.28;1.20;;;;;;;16.31;78.42;102171.53;4929497;29;20474;-61
2022/07/27 04:39:05;;;;;;;2.55;0.82;;;;;;;16.37;78.03;102168.66;4946683;28;20050;-61
2022/07/27 04:41:30;;;;;;;3.85;1.33;;;;;;;16.44;77.62;102165.78;4945894;28;20158;-63
2022/07/27 04:43:57;;;;;;;6.93;1.33;;;;;;;16.39;78.25;102152.63;4927504;28;20498;-62
2022/07/27 04:46:22;;;;;;;3.10;1.05;;;;;;;16.41;78.00;102166.75;4945954;28;20467;-62
2022/07/27 04:48:48;;;;;;;2.95;1.17;;;;;;;16.42;78.01;102158.72;4928294;29;20631;-62
2022/07/27 04:51:14;;;;;;;5.68;1.30;;;;;;;16.40;78.04;102163.22;4944586;29;20085;-61
2022/07/27 04:53:40;;;;;;;5.45;1.17;;;;;;;16.46;77.99;102166.59;4945556;28;20578;-62
2022/07/27 04:56:05;;;;;;;6.03;1.38;;;;;;;16.51;77.71;102172.59;4944461;28;20027;-62
2022/07/27 04:58:31;;;;;;;3.22;1.20;;;;;;;16.51;77.43;102167.25;4945110;29;20490;-62
2022/07/27 05:00:56;;;;;;;4.70;1.30;;;;;;;16.57;76.57;102172.38;4926198;29;20023;-62
2022/07/27 05:03:21;;;;;;;9.52;1.40;;;;;;;16.57;76.23;102171.47;4928480;29;20028;-62
2022/07/27 05:05:47;;;;;;;4.53;1.50;;;;;;;16.73;75.68;102175.28;4944509;29;20161;-63
2022/07/27 05:08:12;;;;;;;5.38;1.10;;;;;;;16.65;76.06;102175.59;4928785;29;20023;-63
2022/07/27 05:10:37;;;;;;;5.53;1.20;;;;;;;16.71;75.54;102176.28;4945954;29;20035;-65
2022/07/27 05:13:03;;;;;;;8.05;1.20;;;;;;;16.76;75.25;102174.28;4929414;29;20020;-63
2022/07/27 05:15:28;;;;;;;6.47;1.48;;;;;;;16.90;74.68;102179.09;4944905;29;20027;-63
2022/07/27 05:17:53;;;;;;;8.38;1.70;;;;;;;16.89;75.04;102177.38;4945683;29;20026;-63
2022/07/27 05:20:19;;;;;;;5.95;1.50;;;;;;;16.90;75.64;102177.31;4948825;28;20088;-64
2022/07/27 05:22:44;;;;;;;6.28;1.75;;;;;;;16.92;75.39;102183.41;4950340;28;20075;-62
2022/07/27 05:25:10;;;;;;;4.50;1.33;;;;;;;17.00;75.24;102180.47;4944614;29;20482;-62
2022/07/27 05:27:36;;;;;;;5.43;1.27;;;;;;;17.00;75.26;102182.25;4945915;29;20034;-62
2022/07/27 05:30:06;;;;;;;4.07;1.17;;;;;;;16.99;75.75;102189.38;4945173;29;20026;-61
2022/07/27 05:32:31;;;;;;;3.67;1.50;;;;;;;17.10;75.84;102196.13;4945327;29;20062;-62
2022/07/27 05:34:57;;;;;;;5.95;1.35;;;;;;;17.10;74.80;102191.63;4946047;29;20115;-62
2022/07/27 05:37:22;;;;;;;6.47;1.30;;;;;;;17.30;74.01;102197.94;4945627;29;20415;-64
2022/07/27 05:39:47;;;;;;;4.32;1.10;;;;;;;17.43;73.32;102196.53;4928781;29;20043;-62
2022/07/27 05:42:13;;;;;;;6.03;1.40;;;;;;;17.55;72.89;102196.97;4951312;28;20474;-62
2022/07/27 05:44:38;;;;;;;5.25;1.02;;;;;;;17.49;72.73;102198.06;4944849;29;20102;-63
2022/07/27 05:47:04;;;;;;;3.35;1.30;;;;;;;17.55;73.00;102200.47;4945326;29;20385;-62
2022/07/27 05:49:29;;;;;;;8.05;1.58;;;;;;;17.60;72.97;102205.59;4944788;29;20398;-62
2022/07/27 05:51:54;;;;;;;4.95;1.30;;;;;;;17.72;72.83;102208.69;4930437;29;20035;-62
2022/07/27 05:54:20;;;;;;;7.15;1.70;;;;;;;17.81;73.68;102202.97;4945604;29;20443;-62
2022/07/27 05:56:46;;;;;;;7.93;1.48;;;;;;;17.92;71.75;102198.06;4935730;28;20501;-61
2022/07/27 05:59:11;;;;;;;9.52;1.30;;;;;;;18.00;70.87;102204.84;4911707;29;20554;-62
2022/07/27 06:01:37;;;;;;;8.68;1.40;;;;;;;18.10;70.85;102203.53;4927373;29;20502;-61
2022/07/27 06:04:02;;;;;;;4.32;1.40;;;;;;;18.26;69.95;102202.84;4930634;28;20423;-62
2022/07/27 06:09:11;;;;;;;2.53;1.17;;;;;;;18.40;66.69;102208.44;4943078;29;20193;-61
2022/07/27 06:11:37;;;;;;;2.78;1.00;;;;;;;18.55;66.56;102200.66;4944895;29;20035;-61
2022/07/27 06:14:02;;;;;;;4.32;1.23;;;;;;;18.65;66.28;102204.63;4927441;29;20027;-62
2022/07/27 06:16:27;;;;;;;2.42;0.90;;;;;;;18.59;65.89;102201.38;4944784;29;20015;-61
2022/07/27 06:18:53;;;;;;;5.20;1.08;;;;;;;18.69;63.54;102200.88;4952285;28;20062;-61
2022/07/27 06:21:18;;;;;;;6.40;1.20;;;;;;;18.65;63.64;102203.75;4943999;29;20061;-61
2022/07/27 06:23:47;;;;;;;5.10;1.20;;;;;;;18.64;63.45;102210.03;4943219;29;20102;-63
2022/07/27 06:26:12;;;;;;;8.10;1.15;;;;;;;18.73;63.00;102203.41;4943358;29;20023;-63
2022/07/27 06:28:37;;;;;;;1.55;1.05;;;;;;;19.03;62.35;102208.22;4943057;28;20447;-65
2022/07/27 06:31:03;;;;;;;2.60;1.00;;;;;;;19.03;62.02;102218.91;4950969;28;20109;-63
2022/07/27 06:33:29;;;;;;;6.40;1.13;;;;;;;19.24;59.84;102221.50;4952428;28;20027;-62
2022/07/27 06:35:56;;;;;;;4.28;1.02;;;;;;;19.27;60.13;102216.00;4946872;29;20035;-62
2022/07/27 06:38:23;;;;;;;4.20;0.90;;;;;;;19.30;60.66;102221.22;4946836;29;20055;-62
2022/07/27 06:40:51;;;;;;;4.35;0.85;;;;;;;19.29;59.66;102217.66;4948233;29;20576;-60
2022/07/27 06:43:20;;;;;;;4.07;1.13;;;;;;;19.26;59.23;102231.16;4947859;29;20450;-60
2022/07/27 06:45:46;;;;;;;7.13;1.65;;;;;;;19.35;58.33;102221.84;4946259;29;20042;-61
2022/07/27 06:48:11;;;;;;;3.80;1.10;;;;;;;19.54;58.78;102223.59;4947139;29;20023;-61
2022/07/27 06:50:37;;;;;;;6.25;1.55;;;;;;;19.74;58.49;102214.56;4947476;28;20258;-61
2022/07/27 06:53:02;;;;;;;6.13;1.35;;;;;;;19.73;59.95;102222.66;4948489;28;20034;-61
2022/07/27 06:55:27;;;;;;;9.88;1.10;;;;;;;19.77;58.71;102222.44;4929066;29;20031;-61
2022/07/27 06:57:53;;;;;;;4.32;1.20;;;;;;;19.95;56.05;102227.78;4929359;29;20101;-62
2022/07/27 07:00:18;;;;;;;2.83;1.00;;;;;;;19.97;57.04;102223.22;4945992;28;20019;-61
2022/07/27 07:02:56;;;;;;;6.25;1.30;;;;;;;20.12;56.18;102228.72;4946906;29;20474;-63
2022/07/27 07:05:22;;;;;;;5.72;1.23;;;;;;;20.13;57.14;102225.09;4946129;29;20495;-62
2022/07/27 07:07:47;;;;;;;5.18;1.30;;;;;;;20.25;58.51;102223.59;4946684;28;20316;-62
2022/07/27 07:10:13;;;;;;;3.08;1.33;;;;;;;20.39;56.83;102226.41;4929716;29;20402;-62
2022/07/27 07:12:38;;;;;;;5.07;1.10;;;;;;;20.41;57.16;102221.81;4946827;29;20020;-63
2022/07/27 07:15:04;;;;;;;3.42;1.00;;;;;;;20.67;57.38;102222.22;4945054;29;20030;-62
2022/07/27 07:17:30;;;;;;;3.67;1.05;;;;;;;20.56;56.70;102235.34;4945817;29;20027;-62
2022/07/27 07:19:55;;;;;;;10.45;1.17;;;;;;;20.54;55.92;102231.88;4946831;29;20094;-64
2022/07/27 07:22:20;;;;;;;5.22;1.20;;;;;;;20.27;57.58;102232.41;4946928;29;20114;-63
2022/07/27 07:24:46;;;;;;;5.18;1.08;;;;;;;20.52;57.50;102236.44;4947795;29;20089;-60
2022/07/27 07:27:11;;;;;;;3.08;1.25;;;;;;;20.62;56.33;102242.16;4947121;29;20106;-62
2022/07/27 07:29:36;;;;;;;6.57;1.08;;;;;;;20.27;57.60;102241.31;4946515;29;20027;-61
2022/07/27 07:32:02;;;;;;;6.95;1.40;;;;;;;20.30;57.81;102243.81;4949981;28;20034;-60
2022/07/27 07:34:28;;;;;;;4.18;1.08;;;;;;;20.30;58.30;102242.94;4948196;28;20101;-61
2022/07/27 07:36:54;;;;;;;6.93;1.50;;;;;;;20.04;58.74;102250.53;4946995;29;20056;-62
2022/07/27 07:39:19;;;;;;;5.03;1.10;;;;;;;19.91;57.93;102242.25;4944887;29;20034;-62
2022/07/27 07:41:45;;;;;;;6.68;1.50;;;;;;;19.68;60.10;102245.16;4929583;29;20027;-62
2022/07/27 07:44:10;;;;;;;3.08;1.10;;;;;;;19.48;60.78;102240.81;4946461;29;20530;-62
2022/07/27 07:46:36;;;;;;;4.95;1.30;;;;;;;19.44;59.11;102242.78;4947830;29;20475;-62
2022/07/27 07:49:02;;;;;;;2.55;0.90;;;;;;;19.52;57.48;102247.75;4947644;29;20468;-60
2022/07/27 07:51:27;;;;;;;5.07;1.02;;;;;;;19.37;55.06;102249.34;4928460;28;20015;-61
2022/07/27 07:53:53;;;;;;;4.43;0.95;;;;;;;19.45;54.19;102246.31;4920444;29;20035;-62
2022/07/27 07:56:19;;;;;;;3.15;1.10;;;;;;;19.55;53.20;102246.72;4946326;29;20094;-61
2022/07/27 07:58:45;;;;;;;5.43;0.95;;;;;;;19.72;53.14;102247.69;4928127;29;20031;-61
2022/07/27 08:01:11;;;;;;;8.90;1.20;;;;;;;19.86;53.54;102255.00;4950176;28;20035;-63
2022/07/27 08:03:36;;;;;;;3.03;1.20;;;;;;;20.09;52.40;102248.50;4951621;28;20082;-62
2022/07/27 08:06:02;;;;;;;3.80;1.08;;;;;;;20.25;52.94;102240.53;4945454;28;20047;-62
2022/07/27 08:08:28;;;;;;;5.10;1.15;;;;;;;20.56;51.41;102243.38;4952764;28;20047;-61
2022/07/27 08:10:54;;;;;;;4.22;1.00;;;;;;;20.57;51.71;102237.06;4945510;29;20043;-62
2022/07/27 08:13:19;;;;;;;3.88;0.82;;;;;;;20.84;51.76;102239.16;4944944;29;20064;-63
2022/07/27 08:15:45;;;;;;;2.05;1.00;;;;;;;21.23;50.63;102238.84;4946533;29;20086;-62
2022/07/27 08:18:11;;;;;;;4.97;1.10;;;;;;;21.17;50.61;102248.97;4946732;29;20055;-62
2022/07/27 08:20:37;;;;;;;2.42;1.15;;;;;;;20.96;49.09;102241.19;4946966;29;20023;-61
2022/07/27 08:23:02;;;;;;;6.40;1.38;;;;;;;20.75;50.55;102245.03;4937117;28;20031;-62
2022/07/27 08:25:28;;;;;;;7.22;1.38;;;;;;;20.94;50.88;102243.09;4946698;29;20046;-61
2022/07/27 08:27:53;;;;;;;5.90;1.25;;;;;;;20.90;51.46;102246.03;4945038;29;20051;-62
2022/07/27 08:30:19;;;;;;;5.43;0.90;;;;;;;20.78;52.02;102256.44;4927583;29;20035;-63
2022/07/27 08:32:49;;;;;;;5.05;1.20;;;;;;;20.62;53.04;102258.25;4946061;29;20522;-63
2022/07/27 08:35:16;;;;;;;4.13;1.02;;;;;;;20.56;54.34;102270.16;4928051;29;20023;-63
2022/07/27 08:37:42;;;;;;;4.43;1.02;;;;;;;20.52;54.93;102264.09;4946162;29;20028;-63
2022/07/27 08:40:08;;;;;;;5.07;0.90;;;;;;;20.51;56.04;102267.72;4945840;29;20034;-64
2022/07/27 08:42:33;;;;;;;2.55;1.15;;;;;;;20.40;57.05;102273.63;4944496;28;20043;-64
2022/07/27 08:44:59;;;;;;;6.60;1.25;;;;;;;20.40;55.78;102279.00;4945682;28;20074;-64
2022/07/27 08:47:24;;;;;;;5.57;1.15;;;;;;;20.41;54.92;102283.38;4926925;29;20032;-64
2022/07/27 08:49:50;;;;;;;2.53;0.98;;;;;;;20.16;55.96;102279.34;4945412;29;20050;-63
2022/07/27 08:52:16;;;;;;;2.50;1.00;;;;;;;20.38;54.77;102272.00;4927277;29;20035;-62
2022/07/27 08:54:41;;;;;;;2.80;0.77;;;;;;;20.55;53.31;102273.75;4926427;29;20031;-63
2022/07/27 08:57:08;;;;;;;4.07;1.20;;;;;;;20.43;54.12;102269.91;4941077;29;20236;-63
2022/07/27 08:59:33;;;;;;;2.17;1.00;;;;;;;20.50;50.82;102265.13;4921848;29;20066;-63
2022/07/27 09:01:59;;;;;;;1.65;0.75;;;;;;;20.47;51.10;102268.84;4949430;28;20032;-63
2022/07/27 09:04:25;;;;;;;3.45;0.90;;;;;;;20.83;50.70;102266.91;4938422;28;20019;-62
2022/07/27 09:06:51;;;;;;;5.38;1.75;;;;;;;20.85;50.99;102254.28;4934120;28;20035;-64
2022/07/27 09:09:18;;;;;;;3.58;1.08;;;;;;;20.51;50.93;102269.53;4923472;28;20568;-63
2022/07/27 09:12:02;;;;;;;3.00;1.40;;;;;;;20.78;50.06;102267.16;4938915;28;20027;-49
2022/07/27 09:14:31;;;;;;;3.38;0.90;;;;;;;21.01;48.99;102259.69;4938934;28;20027;-62
2022/07/27 09:16:57;;;;;;;6.45;1.00;;;;;;;20.86;49.25;102266.72;4921610;28;20480;-62
2022/07/27 09:19:22;;;;;;;2.33;1.02;;;;;;;20.82;48.68;102266.03;4941737;28;20382;-62
2022/07/27 09:21:48;;;;;;;3.13;1.10;;;;;;;20.55;49.96;102263.03;4944997;28;20023;-65
2022/07/27 09:24:14;;;;;;;5.15;1.25;;;;;;;20.41;51.06;102272.69;4937040;28;20031;-62
2022/07/27 09:26:40;;;;;;;5.55;1.15;;;;;;;20.29;51.00;102273.34;4943880;28;20460;-64
2022/07/27 09:29:06;;;;;;;4.13;1.00;;;;;;;20.30;51.38;102273.28;4938064;28;20426;-62
2022/07/27 09:31:33;;;;;;;5.28;0.93;;;;;;;20.40;51.54;102270.97;4938929;28;20462;-63
2022/07/27 09:34:00;;;;;;;3.30;1.10;;;;;;;20.49;51.52;102266.03;4904551;28;20047;-63
2022/07/27 09:36:27;;;;;;;4.85;1.10;;;;;;;20.58;51.23;102252.16;4933644;28;20402;-62
2022/07/27 09:39:02;;;;;;;4.97;0.98;;;;;;;20.95;48.68;102244.81;4943200;28;20074;-63
2022/07/27 09:41:42;;;;;;;4.68;0.80;;;;;;;21.06;47.80;102251.38;4922356;28;20391;-64
2022/07/27 09:44:39;;;;;;;2.03;1.00;;;;;;;21.55;46.07;102257.59;4928463;29;20516;-64
2022/07/27 09:47:27;;;;;;;3.40;1.00;;;;;;;21.58;45.90;102260.06;4915333;29;20047;-64
2022/07/27 09:49:57;;;;;;;2.70;0.93;;;;;;;21.91;47.68;102258.22;4937083;28;20019;-63
2022/07/27 09:52:25;;;;;;;3.58;0.98;;;;;;;22.19;44.61;102265.41;4927251;28;20130;-64
2022/07/27 09:54:50;;;;;;;4.22;1.00;;;;;;;22.05;44.28;102254.66;4922495;29;20334;-64
2022/07/27 09:57:17;;;;;;;7.00;1.00;;;;;;;21.78;44.80;102255.38;4943411;28;20770;-64
2022/07/27 09:59:42;;;;;;;3.22;1.13;;;;;;;21.52;45.99;102252.41;4945520;28;20038;-63
2022/07/27 10:02:11;;;;;;;4.28;1.10;;;;;;;21.43;45.84;102256.47;4934725;28;20075;-66
2022/07/27 10:04:36;;;;;;;1.40;0.68;;;;;;;21.31;46.23;102263.41;4944249;28;20078;-63
2022/07/27 10:07:02;;;;;;;2.28;0.90;;;;;;;21.30;47.05;102267.03;4931322;29;20062;-62
2022/07/27 10:09:29;;;;;;;3.92;1.10;;;;;;;21.25;48.52;102261.06;4914760;29;20023;-65
2022/07/27 10:11:56;;;;;;;5.93;0.75;;;;;;;21.31;49.41;102261.56;4949139;29;20078;-65
2022/07/27 10:14:21;;;;;;;6.70;1.17;;;;;;;21.34;49.76;102268.56;4948055;29;20075;-64
2022/07/27 10:16:51;;;;;;;4.38;0.95;;;;;;;21.42;50.09;102260.97;4932053;29;20028;-65
2022/07/27 10:19:29;;;;;;;6.45;0.82;;;;;;;21.59;49.91;102264.50;4948731;29;20105;-65
2022/07/27 10:21:54;;;;;;;7.72;0.98;;;;;;;21.59;50.41;102261.81;4948020;28;20491;-65
2022/07/27 10:24:24;;;;;;;1.92;0.80;;;;;;;21.30;50.73;102257.19;4948605;29;20065;-65
2022/07/27 10:26:49;;;;;;;1.20;0.70;;;;;;;21.28;50.30;102258.22;4948132;29;20066;-64
2022/07/27 10:29:19;;;;;;;8.88;1.00;;;;;;;21.28;50.38;102255.53;4930614;29;20073;-65
2022/07/27 10:31:51;;;;;;;6.63;1.10;;;;;;;21.25;50.39;102266.44;4948445;29;20023;-66
2022/07/27 10:34:40;;;;;;;4.10;0.75;;;;;;;21.30;51.07;102256.31;4948429;29;20110;-68
2022/07/27 10:37:13;;;;;;;2.38;0.80;;;;;;;20.79;52.21;102257.28;4946676;28;20031;-65
2022/07/27 10:39:45;;;;;;;3.50;0.90;;;;;;;20.83;52.01;102258.88;4915291;29;20030;-65
2022/07/27 10:42:25;;;;;;;2.58;1.15;;;;;;;21.02;50.94;102249.84;4938038;28;20023;-64
2022/07/27 10:45:11;;;;;;;2.15;0.98;;;;;;;21.21;51.12;102258.56;4945079;29;20462;-63
2022/07/27 10:47:43;;;;;;;1.60;0.82;;;;;;;21.38;49.75;102256.75;4929891;29;20078;-64
2022/07/27 10:50:15;;;;;;;1.95;0.88;;;;;;;21.43;49.07;102251.97;4947316;29;20449;-63
2022/07/27 10:52:46;;;;;;;2.92;1.10;;;;;;;21.71;48.31;102247.66;4948019;29;20027;-64
2022/07/27 10:55:34;;;;;;;4.03;1.20;;;;;;;21.93;48.68;102251.78;4945229;29;20074;-64
2022/07/27 10:58:02;;;;;;;2.25;0.90;;;;;;;22.09;47.77;102249.03;4945848;29;20026;-63
2022/07/27 11:00:49;;;;;;;3.10;0.80;;;;;;;22.32;47.35;102252.13;4947520;29;20503;-62
2022/07/27 11:03:24;;;;;;;3.28;1.20;;;;;;;22.12;49.76;102252.50;4944722;28;20127;-63
2022/07/27 11:06:22;;;;;;;2.70;0.90;;;;;;;22.12;47.98;102256.03;4948223;28;20055;-64
2022/07/27 11:08:49;;;;;;;6.65;1.00;;;;;;;22.06;47.45;102251.91;4929457;29;20024;-64
2022/07/27 11:11:19;;;;;;;4.22;1.00;;;;;;;22.16;47.47;102252.22;4929571;29;20031;-63
2022/07/27 11:13:46;;;;;;;6.70;1.10;;;;;;;22.18;46.50;102249.41;4946133;29;20034;-66
2022/07/27 11:16:15;;;;;;;6.47;0.93;;;;;;;22.43;46.46;102248.75;4945842;28;20027;-63
2022/07/27 11:18:42;;;;;;;9.30;1.33;;;;;;;22.94;44.58;102244.72;4930432;29;20023;-63
2022/07/27 11:21:11;;;;;;;2.38;0.82;;;;;;;23.27;44.02;102245.28;4947987;28;20541;-62
2022/07/27 11:23:37;;;;;;;4.72;1.15;;;;;;;24.25;40.06;102247.78;4947115;29;20080;-63
2022/07/27 11:26:02;;;;;;;2.53;0.70;;;;;;;24.90;38.77;102242.34;4947153;28;20027;-63
2022/07/27 11:28:32;;;;;;;5.53;1.20;;;;;;;25.23;36.87;102236.25;4946850;29;20042;-63